^^
No Wait Weather (KNEBELLE1) Station Historical Data
Daily Summary for May 17, 2019 Units:  English    Metric   Both
Daily Weekly Monthly Yearly Custom
  High: Low: Average:
Temperature: 89 °F 65.3 °F 76 °F
Dew Point: 69.16 °F 57.66 °F 62.9 °F
Humidity: 96% 35% 67%
Wind Speed: 11mph 0mph 0.7mph
Wind Gust: 14mph - -
Wind- - SW
Pressure: 29.49 in 29.36 in -
Precipitation: 0.08 in    
Historical Graphs
 
 
Tabular Data for May 17, 2019
Time Temperature Dew Point Pressure Wind Wind Speed Wind Gust Humidity Rainfall Rate (Hourly) solar
00:04 79 °F 59.85 °F 29.48 in Calm     52% 0 in WeatherCatV3.04B91 W/m2
00:09 78.8 °F 59.66 °F 29.48 in Calm     52% 0 in WeatherCatV3.04B91 W/m2
00:14 78.6 °F 60.01 °F 29.47 in Calm     53% 0 in WeatherCatV3.04B91 W/m2
00:19 78.5 °F 59.92 °F 29.47 in Calm     53% 0 in WeatherCatV3.04B91 W/m2
00:24 78.1 °F 60.08 °F 29.47 in Calm     54% 0 in WeatherCatV3.04B91 W/m2
00:29 77.9 °F 60.41 °F 29.47 in Calm     55% 0 in WeatherCatV3.04B91 W/m2
00:34 77.6 °F 60.13 °F 29.47 in Calm     55% 0 in WeatherCatV3.04B91 W/m2
00:39 77.2 °F 60.27 °F 29.47 in Calm     56% 0 in WeatherCatV3.04B91 W/m2
00:44 77 °F 60.58 °F 29.47 in Calm     57% 0 in WeatherCatV3.04B91 W/m2
00:49 76.7 °F 60.79 °F 29.47 in Calm     58% 0 in WeatherCatV3.04B91 W/m2
00:54 76.5 °F 61.09 °F 29.47 in Calm     59% 0 in WeatherCatV3.04B91 W/m2
00:59 76.3 °F 60.9 °F 29.47 in Calm     59% 0 in WeatherCatV3.04B91 W/m2
01:04 76 °F 61.09 °F 29.47 in Calm     60% 0 in WeatherCatV3.04B91 W/m2
01:09 75.8 °F 60.9 °F 29.47 in Calm     60% 0 in WeatherCatV3.04B91 W/m2
01:14 75.6 °F 60.72 °F 29.47 in Calm     60% 0 in WeatherCatV3.04B91 W/m2
01:19 75.4 °F 60.53 °F 29.47 in Calm     60% 0 in WeatherCatV3.04B91 W/m2
01:24 75.3 °F 60.9 °F 29.47 in Calm     61% 0 in WeatherCatV3.04B91 W/m2
01:29 75.1 °F 60.71 °F 29.47 in Calm     61% 0 in WeatherCatV3.04B91 W/m2
01:34 74.7 °F 60.34 °F 29.47 in Calm     61% 0 in WeatherCatV3.04B91 W/m2
01:39 74.6 °F 60.24 °F 29.47 in Calm     61% 0 in WeatherCatV3.04B91 W/m2
01:44 74.4 °F 60.06 °F 29.47 in Calm     61% 0 in WeatherCatV3.04B91 W/m2
01:49 74 °F 59.68 °F 29.47 in Calm     61% 0 in WeatherCatV3.04B91 W/m2
01:54 73.9 °F 59.59 °F 29.47 in Calm     61% 0 in WeatherCatV3.04B91 W/m2
01:59 73.5 °F 59.67 °F 29.46 in Calm     62% 0 in WeatherCatV3.04B91 W/m2
02:04 73.3 °F 59.48 °F 29.46 in Calm     62% 0 in WeatherCatV3.04B91 W/m2
02:09 73.2 °F 59.83 °F 29.46 in Calm     63% 0 in WeatherCatV3.04B91 W/m2
02:14 72.8 °F 59.9 °F 29.46 in Calm     64% 0 in WeatherCatV3.04B91 W/m2
02:19 72.7 °F 59.8 °F 29.46 in Calm     64% 0 in WeatherCatV3.04B91 W/m2
02:24 72.5 °F 60.05 °F 29.46 in Calm     65% 0 in WeatherCatV3.04B91 W/m2
02:29 72.3 °F 59.86 °F 29.46 in Calm     65% 0 in WeatherCatV3.04B91 W/m2
02:34 72.1 °F 60.1 °F 29.46 in Calm     66% 0 in WeatherCatV3.04B91 W/m2
02:39 72 °F 60 °F 29.46 in Calm     66% 0 in WeatherCatV3.04B91 W/m2
02:44 72 °F 60.43 °F 29.46 in Calm     67% 0 in WeatherCatV3.04B91 W/m2
02:49 71.8 °F 60.66 °F 29.46 in Calm     68% 0 in WeatherCatV3.04B91 W/m2
02:54 71.6 °F 60.46 °F 29.46 in Calm     68% 0 in WeatherCatV3.04B91 W/m2
02:59 71.6 °F 60.88 °F 29.46 in Calm     69% 0 in WeatherCatV3.04B91 W/m2
03:04 71.6 °F 61.28 °F 29.46 in Calm     70% 0 in WeatherCatV3.04B91 W/m2
03:09 71.6 °F 61.68 °F 29.46 in Calm     71% 0 in WeatherCatV3.04B91 W/m2
03:14 71.6 °F 61.68 °F 29.45 in Calm     71% 0 in WeatherCatV3.04B91 W/m2
03:19 71.8 °F 62.27 °F 29.45 in Calm     72% 0 in WeatherCatV3.04B91 W/m2
03:24 71.8 °F 62.27 °F 29.45 in Calm     72% 0 in WeatherCatV3.04B91 W/m2
03:29 72 °F 62.47 °F 29.44 in Calm     72% 0 in WeatherCatV3.04B91 W/m2
03:34 72.1 °F 62.56 °F 29.44 in Calm     72% 0 in WeatherCatV3.04B91 W/m2
03:39 72.3 °F 62.75 °F 29.44 in Calm     72% 0 in WeatherCatV3.04B91 W/m2
03:44 72.3 °F 62.75 °F 29.44 in Calm   1 mph 72% 0 in WeatherCatV3.04B91 W/m2
03:49 72.3 °F 62.75 °F 29.44 in Calm   1 mph 72% 0 in WeatherCatV3.04B91 W/m2
03:54 72.5 °F 62.94 °F 29.44 in Calm     72% 0 in WeatherCatV3.04B91 W/m2
03:59 72.5 °F 62.94 °F 29.44 in Calm     72% 0 in WeatherCatV3.04B91 W/m2
04:04 72.3 °F 62.75 °F 29.44 in Calm     72% 0 in WeatherCatV3.04B91 W/m2
04:09 72.3 °F 62.75 °F 29.44 in Calm     72% 0 in WeatherCatV3.04B91 W/m2
04:14 72.3 °F 62.75 °F 29.45 in Calm     72% 0 in WeatherCatV3.04B91 W/m2
04:19 72.1 °F 62.56 °F 29.45 in Calm     72% 0 in WeatherCatV3.04B91 W/m2
04:24 72 °F 62.86 °F 29.45 in Calm     73% 0 in WeatherCatV3.04B91 W/m2
04:29 71.8 °F 62.67 °F 29.44 in Calm     73% 0 in WeatherCatV3.04B91 W/m2
04:34 71.6 °F 62.86 °F 29.44 in Calm     74% 0 in WeatherCatV3.04B91 W/m2
04:39 71.5 °F 62.76 °F 29.44 in Calm     74% 0 in WeatherCatV3.04B91 W/m2
04:44 71.3 °F 62.95 °F 29.44 in Calm     75% 0 in WeatherCatV3.04B91 W/m2
04:49 71.1 °F 62.76 °F 29.44 in Calm     75% 0 in WeatherCatV3.04B91 W/m2
04:54 70.9 °F 62.94 °F 29.44 in Calm     76% 0 in WeatherCatV3.04B91 W/m2
04:59 70.8 °F 62.85 °F 29.44 in Calm     76% 0 in WeatherCatV3.04B91 W/m2
05:04 70.6 °F 63.03 °F 29.44 in Calm     77% 0 in WeatherCatV3.04B91 W/m2
05:09 70.4 °F 62.83 °F 29.44 in Calm     77% 0 in WeatherCatV3.04B91 W/m2
05:14 70.3 °F 63.1 °F 29.45 in Calm     78% 0 in WeatherCatV3.04B91 W/m2
05:19 70.1 °F 62.91 °F 29.45 in Calm     78% 0 in WeatherCatV3.04B91 W/m2
05:24 70.1 °F 63.27 °F 29.45 in Calm     79% 0 in WeatherCatV3.04B91 W/m2
05:29 69.9 °F 63.08 °F 29.46 in Calm     79% 0 in WeatherCatV3.04B91 W/m2
05:34 69.9 °F 63.44 °F 29.46 in Calm     80% 0 in WeatherCatV3.04B91 W/m2
05:39 69.9 °F 63.44 °F 29.46 in Calm   5 mph 80% 0 in WeatherCatV3.04B91 W/m2
05:44 69.8 °F 63.34 °F 29.47 in Calm   3 mph 80% 0 in WeatherCatV3.04B91 W/m2
05:49 69.6 °F 63.15 °F 29.47 in Calm     80% 0 in WeatherCatV3.04B91 W/m2
05:54 69.3 °F 63.21 °F 29.47 in Calm     81% 0 in WeatherCatV3.04B91 W/m2
05:59 69.1 °F 63.01 °F 29.47 in Calm     81% 0 in WeatherCatV3.04B91 W/m2
06:04 68.8 °F 62.72 °F 29.47 in NNE 3 mph 5 mph 81% 0 in WeatherCatV3.04B91 W/m2
06:09 67.9 °F 62.19 °F 29.47 in Calm   3 mph 82% 0 in WeatherCatV3.04B91 W/m2
06:14 67.4 °F 62.05 °F 29.48 in Calm     83% 0 in WeatherCatV3.04B91 W/m2
06:19 67.3 °F 62.29 °F 29.48 in Calm     84% 0 in WeatherCatV3.04B91 W/m2
06:24 67.1 °F 62.43 °F 29.48 in Calm     85% 0 in WeatherCatV3.04B91 W/m2
06:29 66.9 °F 62.57 °F 29.48 in Calm   3 mph 86% 0 in WeatherCatV3.04B91 W/m2
06:34 66.8 °F 62.8 °F 29.48 in Calm     87% 0.42 in WeatherCatV3.04B91 W/m2
06:39 66.4 °F 62.41 °F 29.48 in Calm   3 mph 87% 0.13 in WeatherCatV3.04B91 W/m2
06:44 66.1 °F 62.44 °F 29.48 in Calm     88% 0.12 in WeatherCatV3.04B91 W/m2
06:49 66 °F 62.66 °F 29.48 in Calm     89% 0.06 in WeatherCatV3.04B91 W/m2
06:54 66 °F 62.66 °F 29.48 in Calm     89% 0.04 in WeatherCatV3.04B91 W/m2
06:59 65.8 °F 62.46 °F 29.48 in Calm     89% 0 in WeatherCatV3.04B91 W/m2
07:04 65.6 °F 62.58 °F 29.48 in Calm     90% 0 in WeatherCatV3.04B91 W/m2
07:09 65.5 °F 62.48 °F 29.48 in Calm     90% 0 in WeatherCatV3.04B91 W/m2
07:14 65.3 °F 62.6 °F 29.49 in Calm     91% 0 in WeatherCatV3.04B91 W/m2
07:19 65.3 °F 62.6 °F 29.49 in Calm     91% 0 in WeatherCatV3.04B91 W/m2
07:24 65.3 °F 62.6 °F 29.49 in Calm     91% 0 in WeatherCatV3.04B91 W/m2
07:29 65.5 °F 63.11 °F 29.49 in Calm     92% 0 in WeatherCatV3.04B91 W/m2
07:34 65.5 °F 63.11 °F 29.49 in Calm     92% 0 in WeatherCatV3.04B91 W/m2
07:39 65.6 °F 63.21 °F 29.49 in Calm     92% 0 in WeatherCatV3.04B91 W/m2
07:44 65.6 °F 63.52 °F 29.49 in Calm     93% 0 in WeatherCatV3.04B91 W/m2
07:49 65.8 °F 63.71 °F 29.49 in Calm     93% 0 in WeatherCatV3.04B91 W/m2
07:54 66 °F 63.91 °F 29.49 in Calm     93% 0 in WeatherCatV3.04B91 W/m2
07:59 66 °F 63.91 °F 29.48 in Calm   2 mph 93% 0 in WeatherCatV3.04B91 W/m2
08:04 66 °F 64.22 °F 29.48 in Calm     94% 0 in WeatherCatV3.04B91 W/m2
08:09 66.1 °F 64.32 °F 29.48 in Calm     94% 0 in WeatherCatV3.04B91 W/m2
08:14 66.3 °F 64.52 °F 29.49 in Calm     94% 0 in WeatherCatV3.04B91 W/m2
08:19 66.4 °F 64.62 °F 29.49 in Calm     94% 0 in WeatherCatV3.04B91 W/m2
08:24 66.6 °F 64.81 °F 29.49 in Calm     94% 0 in WeatherCatV3.04B91 W/m2
08:29 66.8 °F 65.01 °F 29.49 in Calm     94% 0 in WeatherCatV3.04B91 W/m2
08:34 66.8 °F 65.32 °F 29.49 in Calm     95% 0 in WeatherCatV3.04B91 W/m2
08:39 66.9 °F 65.42 °F 29.49 in Calm     95% 0 in WeatherCatV3.04B91 W/m2
08:44 67.3 °F 65.81 °F 29.49 in Calm     95% 0 in WeatherCatV3.04B91 W/m2
08:49 67.6 °F 66.11 °F 29.49 in Calm     95% 0 in WeatherCatV3.04B91 W/m2
08:54 67.9 °F 66.41 °F 29.49 in Calm     95% 0 in WeatherCatV3.04B91 W/m2
08:59 68.1 °F 66.61 °F 29.49 in Calm     95% 0 in WeatherCatV3.04B91 W/m2
09:04 68.1 °F 66.61 °F 29.49 in Calm     95% 0 in WeatherCatV3.04B91 W/m2
09:09 68.1 °F 66.61 °F 29.49 in Calm     95% 0 in WeatherCatV3.04B91 W/m2
09:14 68.1 °F 66.61 °F 29.49 in Calm     95% 0 in WeatherCatV3.04B91 W/m2
09:19 68.1 °F 66.61 °F 29.49 in Calm     95% 0 in WeatherCatV3.04B91 W/m2
09:24 68.1 °F 66.61 °F 29.49 in Calm     95% 0 in WeatherCatV3.04B91 W/m2
09:29 68.3 °F 66.81 °F 29.49 in Calm     95% 0 in WeatherCatV3.04B91 W/m2
09:34 68.3 °F 66.81 °F 29.49 in Calm     95% 0.11 in WeatherCatV3.04B91 W/m2
09:39 68.1 °F 66.61 °F 29.49 in Calm     95% 0.07 in WeatherCatV3.04B91 W/m2
09:44 68.1 °F 66.61 °F 29.49 in Calm     95% 0.05 in WeatherCatV3.04B91 W/m2
09:49 68.1 °F 66.61 °F 29.49 in Calm     95% 0 in WeatherCatV3.04B91 W/m2
09:54 68.1 °F 66.61 °F 29.49 in Calm     95% 0 in WeatherCatV3.04B91 W/m2
09:59 68.1 °F 66.61 °F 29.49 in Calm     95% 0 in WeatherCatV3.04B91 W/m2
10:04 68.1 °F 66.61 °F 29.49 in Calm     95% 0 in WeatherCatV3.04B91 W/m2
10:09 68.3 °F 66.81 °F 29.49 in Calm     95% 0 in WeatherCatV3.04B91 W/m2
10:14 68.4 °F 67.21 °F 29.49 in Calm     96% 0 in WeatherCatV3.04B91 W/m2
10:19 68.6 °F 67.41 °F 29.49 in Calm     96% 0 in WeatherCatV3.04B91 W/m2
10:24 68.8 °F 67.61 °F 29.49 in Calm     96% 0 in WeatherCatV3.04B91 W/m2
10:29 69.1 °F 67.91 °F 29.49 in Calm   1 mph 96% 0 in WeatherCatV3.04B91 W/m2
10:34 69.3 °F 68.11 °F 29.49 in Calm     96% 0 in WeatherCatV3.04B91 W/m2
10:39 69.3 °F 67.8 °F 29.49 in Calm     95% 0 in WeatherCatV3.04B91 W/m2
10:44 69.4 °F 67.9 °F 29.49 in Calm     95% 0 in WeatherCatV3.04B91 W/m2
10:49 69.8 °F 68.3 °F 29.49 in Calm     95% 0 in WeatherCatV3.04B91 W/m2
10:54 70.3 °F 68.79 °F 29.49 in Calm   2 mph 95% 0 in WeatherCatV3.04B91 W/m2
10:59 70.4 °F 68.89 °F 29.49 in Calm     95% 0 in WeatherCatV3.04B91 W/m2
11:04 70.4 °F 68.58 °F 29.49 in WSW 5 mph 5 mph 94% 0 in WeatherCatV3.04B91 W/m2
11:09 70.4 °F 68.58 °F 29.49 in Calm   1 mph 94% 0 in WeatherCatV3.04B91 W/m2
11:14 70.6 °F 68.47 °F 29.48 in Calm     93% 0 in WeatherCatV3.04B91 W/m2
11:19 70.8 °F 68.67 °F 29.48 in Calm     93% 0 in WeatherCatV3.04B91 W/m2
11:24 70.8 °F 68.35 °F 29.48 in Calm   1 mph 92% 0 in WeatherCatV3.04B91 W/m2
11:29 70.8 °F 68.04 °F 29.48 in Calm     91% 0 in WeatherCatV3.04B91 W/m2
11:34 70.9 °F 68.13 °F 29.48 in Calm     91% 0 in WeatherCatV3.04B91 W/m2
11:39 71.1 °F 68.01 °F 29.48 in Calm     90% 0 in WeatherCatV3.04B91 W/m2
11:44 71.6 °F 68.18 °F 29.48 in Calm     89% 0 in WeatherCatV3.04B91 W/m2
11:49 72 °F 68.57 °F 29.48 in Calm   3 mph 89% 0 in WeatherCatV3.04B91 W/m2
11:54 72.8 °F 69.03 °F 29.48 in Calm   4 mph 88% 0 in WeatherCatV3.04B91 W/m2
11:59 73.2 °F 69.09 °F 29.48 in Calm     87% 0 in WeatherCatV3.04B91 W/m2
12:04 73.3 °F 68.51 °F 29.48 in Calm     85% 0 in WeatherCatV3.04B91 W/m2
12:09 73.5 °F 68.36 °F 29.48 in Calm     84% 0 in WeatherCatV3.04B91 W/m2
12:14 73.2 °F 67.71 °F 29.45 in Calm   1 mph 83% 0 in WeatherCatV3.04B91 W/m2
12:19 72.8 °F 67.32 °F 29.45 in Calm   1 mph 83% 0 in WeatherCatV3.04B91 W/m2
12:24 72.7 °F 67.23 °F 29.45 in SW 5 mph 7 mph 83% 0 in WeatherCatV3.04B91 W/m2
12:29 72.7 °F 67.23 °F 29.47 in Calm   1 mph 83% 0 in WeatherCatV3.04B91 W/m2
12:34 72.8 °F 67.32 °F 29.47 in Calm     83% 0 in WeatherCatV3.04B91 W/m2
12:39 73.2 °F 67.71 °F 29.47 in Calm     83% 0 in WeatherCatV3.04B91 W/m2
12:44 73.5 °F 67.66 °F 29.47 in Calm     82% 0 in WeatherCatV3.04B91 W/m2
12:49 73.9 °F 68.05 °F 29.47 in Calm     82% 0 in WeatherCatV3.04B91 W/m2
12:54 74.4 °F 67.81 °F 29.47 in Calm   3 mph 80% 0 in WeatherCatV3.04B91 W/m2
12:59 74.7 °F 67.74 °F 29.45 in Calm     79% 0 in WeatherCatV3.04B91 W/m2
13:04 75.4 °F 68.05 °F 29.45 in Calm     78% 0 in WeatherCatV3.04B91 W/m2
13:09 76 °F 68.25 °F 29.45 in Calm     77% 0 in WeatherCatV3.04B91 W/m2
13:14 76.3 °F 67.78 °F 29.44 in Calm   3 mph 75% 0 in WeatherCatV3.04B91 W/m2
13:19 76.7 °F 67.77 °F 29.44 in Calm   1 mph 74% 0 in WeatherCatV3.04B91 W/m2
13:24 77 °F 67.66 °F 29.44 in Calm     73% 0 in WeatherCatV3.04B91 W/m2
13:29 77.7 °F 67.93 °F 29.44 in Calm   1 mph 72% 0 in WeatherCatV3.04B91 W/m2
13:34 78.6 °F 68.39 °F 29.44 in Calm   3 mph 71% 0 in WeatherCatV3.04B91 W/m2
13:39 79.6 °F 68.51 °F 29.44 in Calm   3 mph 69% 0 in WeatherCatV3.04B91 W/m2
13:44 80.5 °F 68.94 °F 29.43 in Calm   2 mph 68% 0 in WeatherCatV3.04B91 W/m2
13:49 81.2 °F 68.29 °F 29.43 in Calm     65% 0 in WeatherCatV3.04B91 W/m2
13:54 81.8 °F 68.4 °F 29.43 in SW 2 mph 6 mph 64% 0 in WeatherCatV3.04B91 W/m2
13:59 82.6 °F 69.16 °F 29.42 in Calm     64% 0 in WeatherCatV3.04B91 W/m2
14:04 83.2 °F 68.32 °F 29.42 in Calm   2 mph 61% 0 in WeatherCatV3.04B91 W/m2
14:09 83.4 °F 68.03 °F 29.42 in Calm     60% 0 in WeatherCatV3.04B91 W/m2
14:14 84.1 °F 68.68 °F 29.41 in SSW 1 mph 4 mph 60% 0 in WeatherCatV3.04B91 W/m2
14:19 84.5 °F 68.07 °F 29.41 in WSW 1 mph 5 mph 58% 0 in WeatherCatV3.04B91 W/m2
14:24 84.9 °F 67.94 °F 29.41 in Calm     57% 0 in WeatherCatV3.04B91 W/m2
14:29 85.3 °F 66.2 °F 29.40 in Calm   4 mph 53% 0 in WeatherCatV3.04B91 W/m2
14:33 85.5 °F 66.38 °F 29.40 in Calm   2 mph 53% 0 in WeatherCatV3.04B91 W/m2
14:39 85.5 °F 65.27 °F 29.40 in WSW 1 mph 4 mph 51% 0 in WeatherCatV3.04B91 W/m2
14:44 85.9 °F 63.3 °F 29.40 in WSW 10 mph 14 mph 47% 0 in WeatherCatV3.04B91 W/m2
14:49 87 °F 63.05 °F 29.40 in WSW 1 mph 7 mph 45% 0 in WeatherCatV3.04B91 W/m2
14:54 87.6 °F 61.63 °F 29.40 in SSW 3 mph 11 mph 42% 0 in WeatherCatV3.04B91 W/m2
14:59 88 °F 59.9 °F 29.39 in Calm   14 mph 39% 0 in WeatherCatV3.04B91 W/m2
15:04 88.4 °F 60.97 °F 29.39 in South 10 mph 10 mph 40% 0 in WeatherCatV3.04B91 W/m2
15:09 88.6 °F 61.84 °F 29.39 in SW 6 mph 9 mph 41% 0 in WeatherCatV3.04B91 W/m2
15:14 88.8 °F 59.13 °F 29.39 in SW 3 mph 11 mph 37% 0 in WeatherCatV3.04B91 W/m2
15:19 88.8 °F 59.87 °F 29.39 in SW 5 mph 6 mph 38% 0 in WeatherCatV3.04B91 W/m2
15:24 88.8 °F 59.13 °F 29.39 in SW 3 mph 11 mph 37% 0 in WeatherCatV3.04B91 W/m2
15:29 89 °F 60.05 °F 29.38 in SW 11 mph 11 mph 38% 0 in WeatherCatV3.04B91 W/m2
15:34 89 °F 58.54 °F 29.38 in SW 5 mph 9 mph 36% 0 in WeatherCatV3.04B91 W/m2
15:39 89 °F 57.75 °F 29.38 in SW 2 mph 13 mph 35% 0 in WeatherCatV3.04B91 W/m2
15:44 89 °F 58.54 °F 29.39 in SW 7 mph 9 mph 36% 0 in WeatherCatV3.04B91 W/m2
15:49 88.8 °F 59.13 °F 29.39 in SSW 5 mph 12 mph 37% 0 in WeatherCatV3.04B91 W/m2
15:54 88.6 °F 58.95 °F 29.39 in Calm   12 mph 37% 0 in WeatherCatV3.04B91 W/m2
15:59 88.2 °F 57.83 °F 29.38 in SW 1 mph 7 mph 36% 0 in WeatherCatV3.04B91 W/m2
16:04 88.2 °F 59.34 °F 29.38 in SSW 4 mph 10 mph 38% 0 in WeatherCatV3.04B91 W/m2
16:09 88.2 °F 59.34 °F 29.38 in South 5 mph 13 mph 38% 0 in WeatherCatV3.04B91 W/m2
16:14 88 °F 57.66 °F 29.39 in West 6 mph 7 mph 36% 0 in WeatherCatV3.04B91 W/m2
16:19 87.4 °F 57.89 °F 29.39 in WSW 2 mph 12 mph 37% 0 in WeatherCatV3.04B91 W/m2
16:24 86.7 °F 60.15 °F 29.39 in Calm   6 mph 41% 0 in WeatherCatV3.04B91 W/m2
16:29 87 °F 61.09 °F 29.38 in SSW 1 mph 6 mph 42% 0 in WeatherCatV3.04B91 W/m2
16:34 87 °F 61.09 °F 29.38 in SW 1 mph 10 mph 42% 0 in WeatherCatV3.04B91 W/m2
16:39 86.5 °F 59.27 °F 29.38 in SW 7 mph 10 mph 40% 0 in WeatherCatV3.04B91 W/m2
16:44 86.3 °F 60.47 °F 29.38 in Calm   1 mph 42% 0 in WeatherCatV3.04B91 W/m2
16:49 86.1 °F 64.08 °F 29.38 in SW 6 mph 10 mph 48% 0 in WeatherCatV3.04B91 W/m2
16:54 86.1 °F 60.95 °F 29.38 in SW 3 mph 7 mph 43% 0 in WeatherCatV3.04B91 W/m2
16:59 85.9 °F 61.42 °F 29.37 in Calm   3 mph 44% 0 in WeatherCatV3.04B91 W/m2
17:04 85.7 °F 60.59 °F 29.37 in SW 1 mph 9 mph 43% 0 in WeatherCatV3.04B91 W/m2
17:09 85.9 °F 60.77 °F 29.37 in Calm   5 mph 43% 0 in WeatherCatV3.04B91 W/m2
17:14 86.1 °F 62.24 °F 29.37 in WSW 3 mph 6 mph 45% 0 in WeatherCatV3.04B91 W/m2
17:19 85.9 °F 62.06 °F 29.37 in Calm   6 mph 45% 0 in WeatherCatV3.04B91 W/m2
17:23 85.7 °F 62.5 °F 29.37 in Calm   9 mph 46% 0 in WeatherCatV3.04B91 W/m2
17:29 85.9 °F 60.11 °F 29.36 in SW 1 mph 5 mph 42% 0 in WeatherCatV3.04B91 W/m2
17:33 85.9 °F 60.11 °F 29.36 in Calm   9 mph 42% 0 in WeatherCatV3.04B91 W/m2
17:39 85.9 °F 63.3 °F 29.36 in Calm   1 mph 47% 0 in WeatherCatV3.04B91 W/m2
17:43 85.7 °F 63.11 °F 29.36 in Calm   3 mph 47% 0 in WeatherCatV3.04B91 W/m2
17:49 85.7 °F 63.71 °F 29.36 in Calm   7 mph 48% 0 in WeatherCatV3.04B91 W/m2
17:53 85.7 °F 62.5 °F 29.36 in SW 1 mph 3 mph 46% 0 in WeatherCatV3.04B91 W/m2
17:59 85.7 °F 62.5 °F 29.36 in SSW 2 mph 4 mph 46% 0 in WeatherCatV3.04B91 W/m2
18:03 85.3 °F 61.52 °F 29.36 in SSW 2 mph 9 mph 45% 0 in WeatherCatV3.04B91 W/m2
18:09 84.9 °F 61.15 °F 29.36 in Calm   1 mph 45% 0 in WeatherCatV3.04B91 W/m2
18:13 84.5 °F 62.02 °F 29.36 in SW 1 mph 5 mph 47% 0 in WeatherCatV3.04B91 W/m2
18:19 84 °F 61.57 °F 29.36 in WSW 3 mph 5 mph 47% 0 in WeatherCatV3.04B91 W/m2
18:23 83.8 °F 61.39 °F 29.36 in Calm   2 mph 47% 0 in WeatherCatV3.04B91 W/m2
18:29 83.6 °F 60.6 °F 29.37 in SW 3 mph 7 mph 46% 0 in WeatherCatV3.04B91 W/m2
18:33 83.4 °F 60.42 °F 29.37 in Calm   7 mph 46% 0 in WeatherCatV3.04B91 W/m2
18:39 83.4 °F 60.42 °F 29.37 in WSW 1 mph 9 mph 46% 0 in WeatherCatV3.04B91 W/m2
18:44 83.2 °F 60.84 °F 29.38 in SW 2 mph 9 mph 47% 0 in WeatherCatV3.04B91 W/m2
18:49 83.2 °F 60.24 °F 29.38 in Calm   5 mph 46% 0 in WeatherCatV3.04B91 W/m2
18:53 83 °F 59.44 °F 29.38 in Calm   6 mph 45% 0 in WeatherCatV3.04B91 W/m2
18:59 83 °F 59.44 °F 29.39 in SW 1 mph 5 mph 45% 0 in WeatherCatV3.04B91 W/m2
19:04 82.8 °F 59.26 °F 29.39 in WSW 2 mph 6 mph 45% 0 in WeatherCatV3.04B91 W/m2
19:09 82.8 °F 59.87 °F 29.39 in SW 5 mph 5 mph 46% 0 in WeatherCatV3.04B91 W/m2
19:14 82.6 °F 59.69 °F 29.39 in Calm   9 mph 46% 0 in WeatherCatV3.04B91 W/m2
19:19 82.4 °F 60.12 °F 29.39 in Calm   6 mph 47% 0 in WeatherCatV3.04B91 W/m2
19:24 82.4 °F 60.12 °F 29.39 in SW 3 mph 5 mph 47% 0 in WeatherCatV3.04B91 W/m2
19:29 82.2 °F 59.93 °F 29.39 in SW 1 mph 8 mph 47% 0 in WeatherCatV3.04B91 W/m2
19:33 82.2 °F 60.53 °F 29.39 in Calm   6 mph 48% 0 in WeatherCatV3.04B91 W/m2
19:39 81.8 °F 60.16 °F 29.39 in Calm   5 mph 48% 0 in WeatherCatV3.04B91 W/m2
19:44 81.6 °F 59.98 °F 29.39 in Calm   4 mph 48% 0 in WeatherCatV3.04B91 W/m2
19:49 81.4 °F 59.8 °F 29.39 in SW 2 mph 5 mph 48% 0 in WeatherCatV3.04B91 W/m2
19:54 81.2 °F 59.61 °F 29.39 in Calm   4 mph 48% 0 in WeatherCatV3.04B91 W/m2
19:59 81.2 °F 59.61 °F 29.38 in Calm   7 mph 48% 0 in WeatherCatV3.04B91 W/m2
20:03 81.1 °F 60.1 °F 29.38 in Calm     49% 0 in WeatherCatV3.04B91 W/m2
20:09 80.9 °F 59.92 °F 29.38 in Calm   6 mph 49% 0 in WeatherCatV3.04B91 W/m2
20:14 80.7 °F 59.74 °F 29.39 in Calm   4 mph 49% 0 in WeatherCatV3.04B91 W/m2
20:19 80.5 °F 59.55 °F 29.39 in Calm   1 mph 49% 0 in WeatherCatV3.04B91 W/m2
20:23 80.3 °F 59.94 °F 29.39 in Calm   3 mph 50% 0 in WeatherCatV3.04B91 W/m2
20:29 80.1 °F 59.76 °F 29.39 in Calm   6 mph 50% 0 in WeatherCatV3.04B91 W/m2
20:33 80.1 °F 59.76 °F 29.39 in SW 3 mph 10 mph 50% 0 in WeatherCatV3.04B91 W/m2
20:39 80.1 °F 59.76 °F 29.39 in SW 5 mph 5 mph 50% 0 in WeatherCatV3.04B91 W/m2
20:43 79.9 °F 59.57 °F 29.39 in SW 1 mph 2 mph 50% 0 in WeatherCatV3.04B91 W/m2
20:49 79.8 °F 58.91 °F 29.39 in Calm   6 mph 49% 0 in WeatherCatV3.04B91 W/m2
20:53 79.8 °F 59.48 °F 29.39 in SW 5 mph 6 mph 50% 0 in WeatherCatV3.04B91 W/m2
20:59 79.8 °F 59.48 °F 29.39 in Calm   12 mph 50% 0 in WeatherCatV3.04B91 W/m2
21:04 79.6 °F 59.3 °F 29.39 in SW 1 mph 6 mph 50% 0 in WeatherCatV3.04B91 W/m2
21:09 79.6 °F 59.3 °F 29.39 in SW 1 mph 3 mph 50% 0 in WeatherCatV3.04B91 W/m2
21:14 79.4 °F 59.11 °F 29.39 in Calm   4 mph 50% 0 in WeatherCatV3.04B91 W/m2
21:19 79.2 °F 59.49 °F 29.39 in Calm   7 mph 51% 0 in WeatherCatV3.04B91 W/m2
21:24 79.2 °F 59.49 °F 29.39 in Calm     51% 0 in WeatherCatV3.04B91 W/m2
21:29 79 °F 59.85 °F 29.38 in Calm   3 mph 52% 0 in WeatherCatV3.04B91 W/m2
21:34 78.8 °F 59.66 °F 29.38 in Calm   2 mph 52% 0 in WeatherCatV3.04B91 W/m2
21:39 78.6 °F 59.48 °F 29.38 in Calm   5 mph 52% 0 in WeatherCatV3.04B91 W/m2
21:44 78.6 °F 59.48 °F 29.38 in SW 2 mph 4 mph 52% 0 in WeatherCatV3.04B91 W/m2
21:49 78.5 °F 59.39 °F 29.38 in Calm   4 mph 52% 0 in WeatherCatV3.04B91 W/m2
21:54 78.5 °F 59.92 °F 29.38 in Calm     53% 0 in WeatherCatV3.04B91 W/m2
21:59 78.3 °F 60.26 °F 29.38 in Calm     54% 0 in WeatherCatV3.04B91 W/m2
22:04 78.1 °F 60.59 °F 29.38 in Calm     55% 0 in WeatherCatV3.04B91 W/m2
22:09 77.7 °F 60.73 °F 29.38 in Calm   1 mph 56% 0 in WeatherCatV3.04B91 W/m2
22:14 77.6 °F 61.14 °F 29.38 in Calm   6 mph 57% 0 in WeatherCatV3.04B91 W/m2
22:19 77.6 °F 61.14 °F 29.38 in Calm   6 mph 57% 0 in WeatherCatV3.04B91 W/m2
22:24 77.4 °F 61.44 °F 29.38 in Calm   2 mph 58% 0 in WeatherCatV3.04B91 W/m2
22:29 77.4 °F 61.44 °F 29.39 in Calm   4 mph 58% 0 in WeatherCatV3.04B91 W/m2
22:34 77.4 °F 61.44 °F 29.39 in Calm   3 mph 58% 0 in WeatherCatV3.04B91 W/m2
22:39 77.2 °F 61.26 °F 29.39 in Calm   2 mph 58% 0 in WeatherCatV3.04B91 W/m2
22:44 77.2 °F 61.74 °F 29.40 in SW 2 mph 5 mph 59% 0 in WeatherCatV3.04B91 W/m2
22:49 77 °F 61.55 °F 29.40 in Calm   3 mph 59% 0 in WeatherCatV3.04B91 W/m2
22:54 77 °F 61.55 °F 29.40 in WSW 3 mph 3 mph 59% 0 in WeatherCatV3.04B91 W/m2
22:59 76.8 °F 61.84 °F 29.41 in Calm   7 mph 60% 0 in WeatherCatV3.04B91 W/m2
23:04 76.8 °F 61.84 °F 29.41 in Calm   9 mph 60% 0 in WeatherCatV3.04B91 W/m2
23:09 76.7 °F 61.75 °F 29.41 in East 4 mph 4 mph 60% 0 in WeatherCatV3.04B91 W/m2
23:14 76.7 °F 61.75 °F 29.39 in Calm     60% 0 in WeatherCatV3.04B91 W/m2
23:19 76.5 °F 62.03 °F 29.39 in Calm   2 mph 61% 0 in WeatherCatV3.04B91 W/m2
23:24 76.3 °F 61.84 °F 29.39 in Calm   10 mph 61% 0 in WeatherCatV3.04B91 W/m2
23:29 76 °F 62.02 °F 29.38 in Calm   6 mph 62% 0 in WeatherCatV3.04B91 W/m2
23:34 75.8 °F 62.29 °F 29.38 in Calm   2 mph 63% 0 in WeatherCatV3.04B91 W/m2
23:39 75.4 °F 62.36 °F 29.38 in Calm   5 mph 64% 0 in WeatherCatV3.04B91 W/m2
23:44 75.3 °F 62.26 °F 29.38 in South 3 mph 6 mph 64% 0 in WeatherCatV3.04B91 W/m2
23:49 75.1 °F 62.51 °F 29.38 in SW 5 mph 5 mph 65% 0 in WeatherCatV3.04B91 W/m2
23:54 75.1 °F 62.51 °F 29.38 in Calm   5 mph 65% 0 in WeatherCatV3.04B91 W/m2
23:59 74.9 °F 62.32 °F 29.38 in SW 2 mph 6 mph 65% 0 in WeatherCatV3.04B91 W/m2
Bellevue, Nebraska, USA
Compliments of Weather Underground - 3.25 mb